aviador You're here:

YPCC Decoded Metar

COCOS ISL INTL A in AUSTRALIA
Report Time2018-01-19 17:00:00
UTC Time2018-01-19 17:19:17
Flight Rules vfr VFR
Wind260° at 06 kt
W.Decomp.*RWY 33: 2.3 kt HW 5.5 kt LCW
W.Rank260° ranks 36
Current wind is below 260° avg. (6.8)
Visibility9999 m
Phenomena:N/A
Clouds:Scattered 019 Hf
Expected CloudBase > 1,600 ft AGL from Temp-Dew spread
CeilingNone
Temp26°C (ISA +11)
Dew Point22°C (79% RH)
QNH1009 hPa
Density Alt1,765 ft
Elevation10 ft
Report Wrong Elevation
Raw Report
METAR YPCC 191700Z AUTO 26006KT 9999 // SCT019 26/22 Q1009=

Extra information for YPCC:More info

Metar Taf Metar & Taf Last 4 Metars F.Rules Stats Wind Profile Meteogram Temp Stats Airport Information Weather charts Add Link Nearby VenuesMetar ALERT Operation Metar Decoded Social comments